Terminal Aerodrome Forecast
Issued by NWS Newport/Morehead City, NC

Home | Current Version | Previous Version | Graphics & Text | Print | Product List | Glossary On
Versions: 1 2 3 4 5 6 7 8 9 10 11 12 13 14 15 16 17
157
FTUS42 KMHX 291121
TAFEWN
TAF
KEWN 291121Z 2912/3012 27007KT P6SM SCT250
     FM291900 24008KT P6SM SCT050
     FM300300 21005KT P6SM BKN050
     FM300600 21003KT P6SM VCSH SCT025 BKN050=

USA.gov is the U.S. government's official web portal to all federal, state and local government web resources and services.